Time;durP1;ratioP1;P1;durP2;ratioP2;P2;SDS_P1;SDS_P2;PMS_P1;PMS_P2;Temp;Humidity;BMP_temperature;BMP_pressure;BME280_temperature;BME280_humidity;BME280_pressure;Samples;Min_cycle;Max_cycle;Signal;HPM_P1;HPM_P2
2022/05/10 00:00:29;;;;;;;;;;;18.40;43.00;;;;;;5073732;28;19912;-87
2022/05/10 00:02:56;;;;;;;;;;;18.30;43.30;;;;;;5074441;28;19921;-86
2022/05/10 00:05:32;;;;;;;;;;;18.30;43.40;;;;;;5075785;28;21187;-86
2022/05/10 00:07:58;;;;;;;;;;;18.20;43.50;;;;;;5074564;28;19921;-87
2022/05/10 00:10:24;;;;;;;;;;;18.20;43.40;;;;;;5074891;28;19913;-86
2022/05/10 00:12:50;;;;;;;;;;;18.10;43.60;;;;;;5074908;28;19916;-87
2022/05/10 00:15:15;;;;;;;;;;;18.10;43.70;;;;;;5073357;28;20489;-87
2022/05/10 00:17:41;;;;;;;;;;;18.00;43.80;;;;;;5075220;28;19920;-88
2022/05/10 00:20:09;;;;;;;;;;;18.00;43.70;;;;;;5073922;28;19916;-88
2022/05/10 00:22:35;;;;;;;;;;;17.90;43.80;;;;;;5074299;28;19983;-88
2022/05/10 00:25:01;;;;;;;;;;;17.90;43.90;;;;;;5074476;28;19948;-88
2022/05/10 00:27:26;;;;;;;;;;;17.90;44.10;;;;;;5076213;28;19974;-87
2022/05/10 00:29:52;;;;;;;;;;;17.90;44.20;;;;;;5074304;28;19913;-87
2022/05/10 00:32:17;;;;;;;;;;;17.90;44.30;;;;;;5073053;28;19916;-89
2022/05/10 00:34:43;;;;;;;;;;;17.90;44.20;;;;;;5070939;28;19960;-88
2022/05/10 00:37:10;;;;;;;;;;;17.90;44.30;;;;;;5074346;28;19923;-88
2022/05/10 00:39:36;;;;;;;;;;;17.90;44.40;;;;;;5065896;28;19917;-88
2022/05/10 00:42:22;;;;;;;;;;;17.80;44.50;;;;;;5074230;28;19919;-87
2022/05/10 00:44:49;;;;;;;;;;;17.80;44.60;;;;;;5070729;28;19924;-87
2022/05/10 00:47:20;;;;;;;;;;;17.80;44.70;;;;;;5070908;28;19913;-88
2022/05/10 00:49:50;;;;;;;;;;;17.70;44.80;;;;;;5073362;28;19916;-88
2022/05/10 00:52:21;;;;;;;;;;;17.70;44.70;;;;;;5075755;28;19996;-87
2022/05/10 00:54:46;;;;;;;;;;;17.70;44.70;;;;;;5070850;28;19920;-87
2022/05/10 00:57:12;;;;;;;;;;;17.60;44.60;;;;;;5071388;28;19921;-88
2022/05/10 00:59:54;;;;;;;;;;;17.50;44.60;;;;;;5068540;28;20020;-87
2022/05/10 01:02:30;;;;;;;;;;;17.50;44.60;;;;;;5074975;28;19923;-88
2022/05/10 01:04:58;;;;;;;;;;;17.50;44.70;;;;;;5072486;28;20416;-87
2022/05/10 01:07:24;;;;;;;;;;;17.40;45.20;;;;;;5073431;28;20033;-87
2022/05/10 01:09:52;;;;;;;;;;;17.40;45.20;;;;;;5067568;28;19916;-87
2022/05/10 01:12:24;;;;;;;;;;;17.30;45.40;;;;;;5071428;28;19925;-87
2022/05/10 01:14:54;;;;;;;;;;;17.30;45.60;;;;;;5074806;28;19912;-88
2022/05/10 01:17:19;;;;;;;;;;;17.30;46.00;;;;;;5067466;28;19944;-87
2022/05/10 01:19:45;;;;;;;;;;;17.30;46.00;;;;;;5072516;28;19916;-87
2022/05/10 01:22:26;;;;;;;;;;;17.30;46.00;;;;;;5073559;28;19912;-87
2022/05/10 01:25:05;;;;;;;;;;;17.30;46.00;;;;;;5072977;28;19955;-88
2022/05/10 01:27:49;;;;;;;;;;;17.30;45.90;;;;;;5086073;28;20004;-87
2022/05/10 01:30:16;;;;;;;;;;;17.30;45.90;;;;;;5078861;28;20603;-87
2022/05/10 01:35:38;;;;;;;;;;;17.40;45.80;;;;;;5066506;28;19962;-88
2022/05/10 01:38:06;;;;;;;;;;;17.50;45.80;;;;;;5071573;28;19928;-87
2022/05/10 01:40:35;;;;;;;;;;;17.50;45.60;;;;;;5058328;28;19916;-87
2022/05/10 01:43:21;;;;;;;;;;;17.60;45.60;;;;;;5071371;28;19994;-87
2022/05/10 01:45:58;;;;;;;;;;;17.70;45.50;;;;;;5063286;28;20265;-86
2022/05/10 01:48:23;;;;;;;;;;;17.80;45.40;;;;;;5072222;28;19917;-86
2022/05/10 01:50:52;;;;;;;;;;;17.80;45.40;;;;;;5073354;28;19962;-87
2022/05/10 01:53:25;;;;;;;;;;;17.80;45.30;;;;;;5070295;28;20252;-87
2022/05/10 01:55:51;;;;;;;;;;;17.80;45.30;;;;;;5072518;28;19935;-87
2022/05/10 01:58:28;;;;;;;;;;;17.80;45.30;;;;;;5067894;28;19985;-87
2022/05/10 02:00:55;;;;;;;;;;;17.70;45.30;;;;;;5072069;28;20368;-87
2022/05/10 02:03:24;;;;;;;;;;;17.70;45.40;;;;;;5070749;28;19925;-87
2022/05/10 02:05:53;;;;;;;;;;;17.70;45.50;;;;;;5071773;28;19917;-87
2022/05/10 02:08:27;;;;;;;;;;;17.60;45.50;;;;;;5071953;28;19920;-87
2022/05/10 02:10:54;;;;;;;;;;;17.60;45.40;;;;;;5071738;28;20390;-87
2022/05/10 02:13:25;;;;;;;;;;;17.60;45.40;;;;;;5072840;28;19923;-87
2022/05/10 02:15:56;;;;;;;;;;;17.50;45.40;;;;;;5074830;28;19924;-87
2022/05/10 02:18:30;;;;;;;;;;;17.40;45.50;;;;;;5072319;28;20001;-87
2022/05/10 02:21:00;;;;;;;;;;;17.30;45.70;;;;;;5074593;28;20336;-88
2022/05/10 02:23:30;;;;;;;;;;;17.30;45.70;;;;;;5073131;28;20033;-87
2022/05/10 02:26:16;;;;;;;;;;;17.30;45.90;;;;;;5074183;28;19909;-87
2022/05/10 02:28:45;;;;;;;;;;;17.20;46.20;;;;;;5071872;28;19923;-87
2022/05/10 02:31:16;;;;;;;;;;;17.20;46.30;;;;;;5071223;28;20352;-87
2022/05/10 02:33:42;;;;;;;;;;;17.10;46.40;;;;;;5063938;28;19916;-87
2022/05/10 02:36:08;;;;;;;;;;;17.10;46.50;;;;;;5071028;28;20012;-85
2022/05/10 02:38:35;;;;;;;;;;;17.10;46.90;;;;;;5072070;28;20027;-87
2022/05/10 02:41:03;;;;;;;;;;;17.00;47.10;;;;;;5088578;28;19920;-87
2022/05/10 02:43:34;;;;;;;;;;;17.00;47.70;;;;;;5071515;28;19923;-87
2022/05/10 02:46:00;;;;;;;;;;;16.90;47.90;;;;;;5071510;28;19920;-88
2022/05/10 02:48:27;;;;;;;;;;;16.90;48.20;;;;;;5069299;28;20513;-88
2022/05/10 02:50:53;;;;;;;;;;;16.90;48.40;;;;;;5069643;28;19967;-88
2022/05/10 02:53:18;;;;;;;;;;;16.90;48.50;;;;;;5065430;28;19923;-87
2022/05/10 02:55:50;;;;;;;;;;;16.90;48.40;;;;;;5073508;28;19928;-87
2022/05/10 02:58:17;;;;;;;;;;;16.90;48.20;;;;;;5072502;28;19932;-87
2022/05/10 03:00:43;;;;;;;;;;;16.90;48.20;;;;;;5076205;28;20372;-88
2022/05/10 03:03:12;;;;;;;;;;;16.80;48.40;;;;;;5077368;28;19920;-87
2022/05/10 03:05:37;;;;;;;;;;;16.80;48.40;;;;;;5075957;28;20083;-88
2022/05/10 03:08:04;;;;;;;;;;;16.90;48.50;;;;;;5075987;28;20388;-88
2022/05/10 03:10:30;;;;;;;;;;;16.90;48.60;;;;;;5072412;28;19966;-87
2022/05/10 03:12:56;;;;;;;;;;;16.90;48.80;;;;;;5074499;28;19912;-87
2022/05/10 03:15:21;;;;;;;;;;;16.90;49.00;;;;;;5071003;28;19920;-87
2022/05/10 03:17:47;;;;;;;;;;;16.90;49.10;;;;;;5074825;28;19916;-87
2022/05/10 03:20:12;;;;;;;;;;;16.90;49.10;;;;;;5074184;28;19935;-86
2022/05/10 03:22:38;;;;;;;;;;;16.90;49.40;;;;;;5071921;28;19952;-87
2022/05/10 03:25:03;;;;;;;;;;;16.90;49.70;;;;;;5073273;28;19930;-85
2022/05/10 03:27:29;;;;;;;;;;;16.90;49.50;;;;;;5073461;28;19912;-86
2022/05/10 03:29:54;;;;;;;;;;;17.00;49.20;;;;;;5073046;28;19917;-86
2022/05/10 03:32:20;;;;;;;;;;;17.00;49.10;;;;;;5074785;28;19912;-86
2022/05/10 03:34:54;;;;;;;;;;;17.00;49.00;;;;;;5074208;28;19916;-87
2022/05/10 03:37:29;;;;;;;;;;;17.00;48.90;;;;;;5070862;28;19920;-86
2022/05/10 03:39:55;;;;;;;;;;;17.00;48.80;;;;;;5075174;28;19920;-86
2022/05/10 03:42:22;;;;;;;;;;;17.00;48.60;;;;;;5073978;28;19912;-86
2022/05/10 03:44:50;;;;;;;;;;;17.00;48.50;;;;;;5076542;28;20272;-86
2022/05/10 03:47:17;;;;;;;;;;;16.90;48.40;;;;;;5075072;28;20007;-86
2022/05/10 03:49:43;;;;;;;;;;;17.00;48.30;;;;;;5076080;28;19979;-87
2022/05/10 03:52:09;;;;;;;;;;;16.90;48.20;;;;;;5075169;28;19913;-86
2022/05/10 03:54:34;;;;;;;;;;;16.90;48.20;;;;;;5076604;28;19916;-86
2022/05/10 03:57:00;;;;;;;;;;;17.00;48.10;;;;;;5076376;28;19919;-86
2022/05/10 03:59:26;;;;;;;;;;;17.00;48.10;;;;;;5076195;28;19924;-86
2022/05/10 04:01:51;;;;;;;;;;;17.00;48.00;;;;;;5075784;28;19952;-86
2022/05/10 04:04:17;;;;;;;;;;;16.90;48.00;;;;;;5077329;28;19912;-86
2022/05/10 04:06:42;;;;;;;;;;;17.00;47.90;;;;;;5076024;28;19913;-85
2022/05/10 04:09:08;;;;;;;;;;;17.00;47.90;;;;;;5074590;28;20391;-85
2022/05/10 04:11:34;;;;;;;;;;;17.00;47.90;;;;;;5091220;28;19938;-85
2022/05/10 04:14:00;;;;;;;;;;;17.00;47.90;;;;;;5064265;28;19912;-85
2022/05/10 04:16:26;;;;;;;;;;;17.10;47.90;;;;;;5066562;28;19940;-85
2022/05/10 04:18:51;;;;;;;;;;;17.00;47.90;;;;;;5065725;28;20383;-85
2022/05/10 04:21:17;;;;;;;;;;;17.10;48.00;;;;;;5075310;28;19917;-85
2022/05/10 04:23:43;;;;;;;;;;;17.10;48.10;;;;;;5074729;28;19948;-86
2022/05/10 04:26:10;;;;;;;;;;;17.20;48.10;;;;;;5073704;28;20015;-86
2022/05/10 04:28:35;;;;;;;;;;;17.20;48.00;;;;;;5073506;28;19912;-86
2022/05/10 04:31:01;;;;;;;;;;;17.30;48.00;;;;;;5076214;28;20004;-86
2022/05/10 04:33:27;;;;;;;;;;;17.30;48.10;;;;;;5071633;28;19935;-86
2022/05/10 04:35:52;;;;;;;;;;;17.40;48.10;;;;;;5091293;28;19955;-86
2022/05/10 04:38:18;;;;;;;;;;;17.50;48.10;;;;;;5075385;28;19920;-86
2022/05/10 04:43:28;;;;;;;;;;;17.70;48.20;;;;;;5075400;28;19958;-85
2022/05/10 04:45:54;;;;;;;;;;;17.80;48.20;;;;;;5075091;28;20665;-85
2022/05/10 04:48:22;;;;;;;;;;;18.00;48.20;;;;;;5079451;28;19912;-86
2022/05/10 04:50:48;;;;;;;;;;;18.20;48.30;;;;;;5083921;28;20000;-86
2022/05/10 04:53:13;;;;;;;;;;;18.30;48.40;;;;;;5081661;28;20003;-87
2022/05/10 04:55:39;;;;;;;;;;;18.50;48.40;;;;;;5100951;28;19917;-87
2022/05/10 04:58:04;;;;;;;;;;;18.80;48.50;;;;;;5081166;28;19931;-87
2022/05/10 05:00:30;;;;;;;;;;;19.10;48.80;;;;;;5077225;28;19920;-86
2022/05/10 05:02:55;;;;;;;;;;;19.30;48.90;;;;;;5085402;28;19912;-86
2022/05/10 05:05:21;;;;;;;;;;;19.60;49.00;;;;;;5081539;28;19978;-86
2022/05/10 05:07:46;;;;;;;;;;;20.00;48.90;;;;;;5089370;28;19920;-86
2022/05/10 05:10:12;;;;;;;;;;;20.30;48.70;;;;;;5080431;28;20260;-86
2022/05/10 05:12:37;;;;;;;;;;;20.70;48.70;;;;;;5076345;28;19917;-86
2022/05/10 05:15:04;;;;;;;;;;;21.10;48.30;;;;;;5090385;28;20364;-86
2022/05/10 05:17:30;;;;;;;;;;;21.40;48.00;;;;;;5083598;28;20075;-86
2022/05/10 05:19:55;;;;;;;;;;;21.70;47.60;;;;;;5085679;28;19978;-86
2022/05/10 05:22:21;;;;;;;;;;;22.00;47.10;;;;;;5085200;28;19915;-86
2022/05/10 05:24:46;;;;;;;;;;;22.30;46.80;;;;;;5088531;28;19916;-86
2022/05/10 05:27:11;;;;;;;;;;;22.50;46.40;;;;;;5080435;28;19915;-86
2022/05/10 05:29:37;;;;;;;;;;;22.70;46.00;;;;;;5084183;28;19920;-86
2022/05/10 05:32:05;;;;;;;;;;;22.90;45.60;;;;;;5080729;28;19935;-85
2022/05/10 05:34:30;;;;;;;;;;;23.20;45.20;;;;;;5080510;28;19916;-86
2022/05/10 05:39:40;;;;;;;;;;;23.50;44.50;;;;;;5075033;28;20017;-86
2022/05/10 05:42:05;;;;;;;;;;;23.60;44.30;;;;;;5082107;28;19915;-86
2022/05/10 05:44:31;;;;;;;;;;;23.80;44.00;;;;;;5088276;28;19967;-86
2022/05/10 05:46:57;;;;;;;;;;;24.00;43.80;;;;;;5078678;28;20310;-86
2022/05/10 05:49:26;;;;;;;;;;;24.20;43.60;;;;;;5083322;28;19942;-87
2022/05/10 05:51:58;;;;;;;;;;;24.30;43.20;;;;;;5083035;28;19913;-87
2022/05/10 05:54:24;;;;;;;;;;;24.50;43.00;;;;;;5079380;28;20348;-87
2022/05/10 05:56:50;;;;;;;;;;;24.80;42.90;;;;;;5088271;28;20024;-87
2022/05/10 05:59:15;;;;;;;;;;;25.10;42.90;;;;;;5082733;28;19972;-86
2022/05/10 06:01:41;;;;;;;;;;;25.40;42.70;;;;;;5080530;28;20376;-86
2022/05/10 06:04:06;;;;;;;;;;;25.60;42.10;;;;;;5080852;28;20409;-87
2022/05/10 06:06:32;;;;;;;;;;;25.80;41.60;;;;;;5082389;28;20272;-86
2022/05/10 06:08:57;;;;;;;;;;;25.90;41.20;;;;;;5084850;28;19920;-87
2022/05/10 06:11:23;;;;;;;;;;;26.10;41.20;;;;;;5086574;28;19965;-87
2022/05/10 06:13:48;;;;;;;;;;;26.20;40.80;;;;;;5083922;28;19923;-86
2022/05/10 06:16:13;;;;;;;;;;;26.40;40.80;;;;;;5079512;28;19912;-87
2022/05/10 06:18:39;;;;;;;;;;;26.60;40.60;;;;;;5084178;28;19920;-86
2022/05/10 06:21:04;;;;;;;;;;;26.80;40.40;;;;;;5077981;28;19917;-87
2022/05/10 06:23:30;;;;;;;;;;;27.10;40.20;;;;;;5076550;28;19920;-87
2022/05/10 06:25:55;;;;;;;;;;;27.40;40.30;;;;;;5080417;28;19919;-87
2022/05/10 06:28:21;;;;;;;;;;;27.80;40.00;;;;;;5084015;28;20418;-87
2022/05/10 06:30:47;;;;;;;;;;;28.10;39.90;;;;;;5079989;28;19913;-87
2022/05/10 06:33:15;;;;;;;;;;;28.50;39.00;;;;;;5080567;28;19935;-87
2022/05/10 06:35:41;;;;;;;;;;;28.80;38.40;;;;;;5087433;28;19919;-87
2022/05/10 06:40:50;;;;;;;;;;;29.30;37.70;;;;;;5079904;28;19970;-87
2022/05/10 06:43:16;;;;;;;;;;;29.40;37.30;;;;;;5074688;28;19942;-87
2022/05/10 06:45:41;;;;;;;;;;;29.80;37.00;;;;;;5078432;28;20326;-87
2022/05/10 06:48:10;;;;;;;;;;;30.00;36.40;;;;;;5076256;28;19917;-92
2022/05/10 06:50:36;;;;;;;;;;;30.40;36.20;;;;;;5082036;28;19938;-87
2022/05/10 06:53:01;;;;;;;;;;;30.70;35.80;;;;;;5082122;28;20351;-87
2022/05/10 06:55:28;;;;;;;;;;;31.20;35.50;;;;;;5078889;28;19916;-86
2022/05/10 06:57:53;;;;;;;;;;;31.60;35.00;;;;;;5079371;28;19923;-86
2022/05/10 07:00:19;;;;;;;;;;;32.00;34.70;;;;;;5078526;28;19925;-86
2022/05/10 07:02:45;;;;;;;;;;;32.40;34.10;;;;;;5088076;28;19920;-86
2022/05/10 07:05:11;;;;;;;;;;;32.80;33.80;;;;;;5078207;28;19921;-86
2022/05/10 07:07:37;;;;;;;;;;;33.30;32.60;;;;;;5081145;28;19935;-86
2022/05/10 07:10:04;;;;;;;;;;;33.70;30.50;;;;;;5081947;28;20402;-86
2022/05/10 07:12:29;;;;;;;;;;;33.90;28.80;;;;;;5078783;28;19918;-86
2022/05/10 07:14:55;;;;;;;;;;;34.10;28.20;;;;;;5081396;28;20007;-86
2022/05/10 07:17:20;;;;;;;;;;;34.30;27.50;;;;;;5078090;28;19931;-86
2022/05/10 07:19:47;;;;;;;;;;;34.50;27.00;;;;;;5080422;28;19966;-86
2022/05/10 07:22:12;;;;;;;;;;;34.70;26.80;;;;;;5079933;28;19952;-86
2022/05/10 07:24:38;;;;;;;;;;;34.80;26.90;;;;;;5084042;28;19956;-86
2022/05/10 07:27:03;;;;;;;;;;;35.30;26.60;;;;;;5082608;28;19912;-85
2022/05/10 07:29:29;;;;;;;;;;;35.70;26.80;;;;;;5103917;28;19916;-85
2022/05/10 07:31:54;;;;;;;;;;;36.20;25.80;;;;;;5074998;28;19919;-85
2022/05/10 07:34:20;;;;;;;;;;;36.50;25.50;;;;;;5080788;28;19959;-86
2022/05/10 07:36:46;;;;;;;;;;;36.80;25.30;;;;;;5086305;28;19922;-86
2022/05/10 07:39:14;;;;;;;;;;;37.20;24.60;;;;;;5077999;28;19933;-87
2022/05/10 07:41:40;;;;;;;;;;;37.30;23.80;;;;;;5078796;28;20245;-87
2022/05/10 07:44:06;;;;;;;;;;;37.60;23.30;;;;;;5085577;28;19953;-87
2022/05/10 07:46:31;;;;;;;;;;;37.90;23.30;;;;;;5085217;28;19916;-87
2022/05/10 07:48:56;;;;;;;;;;;38.20;22.80;;;;;;5085417;28;19920;-87
2022/05/10 07:51:22;;;;;;;;;;;38.30;22.40;;;;;;5086344;28;20317;-87
2022/05/10 07:53:48;;;;;;;;;;;38.40;22.40;;;;;;5080175;28;20290;-87
2022/05/10 07:56:13;;;;;;;;;;;38.40;21.80;;;;;;5076834;28;19948;-87
2022/05/10 07:58:39;;;;;;;;;;;38.40;21.70;;;;;;5079742;28;19917;-88
2022/05/10 08:01:05;;;;;;;;;;;38.50;21.10;;;;;;5099112;28;19916;-87
2022/05/10 08:03:30;;;;;;;;;;;38.40;20.60;;;;;;5085158;28;19919;-87
2022/05/10 08:05:56;;;;;;;;;;;38.60;21.10;;;;;;5084438;28;19915;-88
2022/05/10 08:08:22;;;;;;;;;;;38.80;21.10;;;;;;5078091;28;19955;-87
2022/05/10 08:10:48;;;;;;;;;;;39.20;21.00;;;;;;5083946;28;19923;-87
2022/05/10 08:13:15;;;;;;;;;;;39.30;20.00;;;;;;5086649;28;19921;-87
2022/05/10 08:15:41;;;;;;;;;;;39.40;20.20;;;;;;5083662;28;19914;-87
2022/05/10 08:18:08;;;;;;;;;;;39.60;20.10;;;;;;5086316;28;20431;-88
2022/05/10 08:20:33;;;;;;;;;;;39.70;19.70;;;;;;5105326;28;19908;-87
2022/05/10 08:22:59;;;;;;;;;;;39.80;19.50;;;;;;5084048;28;19923;-87
2022/05/10 08:25:24;;;;;;;;;;;39.80;19.40;;;;;;5083243;28;19908;-87
2022/05/10 08:27:50;;;;;;;;;;;40.00;19.30;;;;;;5077029;28;19970;-87
2022/05/10 08:30:15;;;;;;;;;;;40.10;19.00;;;;;;5087003;28;19908;-87
2022/05/10 08:32:42;;;;;;;;;;;40.20;18.80;;;;;;5096534;28;19916;-86
2022/05/10 08:35:07;;;;;;;;;;;40.30;19.10;;;;;;5104778;28;20489;-87
2022/05/10 08:37:36;;;;;;;;;;;40.50;19.20;;;;;;5078095;28;19963;-87
2022/05/10 08:40:03;;;;;;;;;;;40.70;19.00;;;;;;5088249;28;19912;-87
2022/05/10 08:42:30;;;;;;;;;;;40.80;19.10;;;;;;5084498;28;20401;-88
2022/05/10 08:44:59;;;;;;;;;;;40.90;18.80;;;;;;5086585;28;19919;-87
2022/05/10 08:47:26;;;;;;;;;;;41.00;19.00;;;;;;5080309;28;19928;-87
2022/05/10 08:49:59;;;;;;;;;;;41.10;18.50;;;;;;5079531;28;19912;-87
2022/05/10 08:52:28;;;;;;;;;;;41.00;18.50;;;;;;5083644;28;19969;-87
2022/05/10 08:54:54;;;;;;;;;;;41.00;18.40;;;;;;5090941;28;19916;-88
2022/05/10 08:57:35;;;;;;;;;;;41.10;18.40;;;;;;5079967;28;20668;-87
2022/05/10 09:00:10;;;;;;;;;;;41.20;18.50;;;;;;5090518;28;19924;-87
2022/05/10 09:02:50;;;;;;;;;;;41.30;18.30;;;;;;5083193;28;19916;-87
2022/05/10 09:05:25;;;;;;;;;;;41.50;18.00;;;;;;5079272;28;20007;-87
2022/05/10 09:07:55;;;;;;;;;;;41.70;18.10;;;;;;5076061;28;19923;-87
2022/05/10 09:10:39;;;;;;;;;;;42.00;17.80;;;;;;5077009;28;19913;-87
2022/05/10 09:13:06;;;;;;;;;;;42.30;17.90;;;;;;5080663;28;19956;-87
2022/05/10 09:15:34;;;;;;;;;;;42.70;17.80;;;;;;5082656;28;20264;-87
2022/05/10 09:18:05;;;;;;;;;;;43.00;17.60;;;;;;5079963;28;19928;-87
2022/05/10 09:20:31;;;;;;;;;;;43.30;17.10;;;;;;5085612;28;19916;-87
2022/05/10 09:23:15;;;;;;;;;;;43.30;16.70;;;;;;5099115;28;19923;-87
2022/05/10 09:25:43;;;;;;;;;;;43.30;16.60;;;;;;5081883;28;19912;-87
2022/05/10 09:28:12;;;;;;;;;;;43.30;16.60;;;;;;5082321;28;19920;-87
2022/05/10 09:30:37;;;;;;;;;;;43.30;16.50;;;;;;5079214;28;19919;-87
2022/05/10 09:36:04;;;;;;;;;;;43.60;16.60;;;;;;5085944;28;19919;-88
2022/05/10 09:38:30;;;;;;;;;;;43.80;16.10;;;;;;5076747;28;20268;-87
2022/05/10 09:40:56;;;;;;;;;;;43.40;16.00;;;;;;5076063;28;19913;-87
2022/05/10 09:43:26;;;;;;;;;;;43.00;16.40;;;;;;5081593;28;19916;-87
2022/05/10 09:46:03;;;;;;;;;;;42.80;16.50;;;;;;5082998;28;19919;-87
2022/05/10 09:48:29;;;;;;;;;;;42.70;16.80;;;;;;5076503;28;19916;-87
2022/05/10 09:50:56;;;;;;;;;;;42.90;16.90;;;;;;5080135;28;20272;-88
2022/05/10 09:53:23;;;;;;;;;;;43.30;16.60;;;;;;5084871;28;19916;-88
2022/05/10 09:55:58;;;;;;;;;;;43.40;16.00;;;;;;5084664;28;19912;-87
2022/05/10 09:58:29;;;;;;;;;;;43.50;16.20;;;;;;5079917;28;19927;-88
2022/05/10 10:00:56;;;;;;;;;;;43.70;16.10;;;;;;5085575;28;19920;-88
2022/05/10 10:03:26;;;;;;;;;;;43.90;16.10;;;;;;5088210;28;19924;-88
2022/05/10 10:05:54;;;;;;;;;;;44.10;15.90;;;;;;5082328;28;19999;-88
2022/05/10 10:08:36;;;;;;;;;;;44.40;15.80;;;;;;5081733;28;19916;-88
2022/05/10 10:11:01;;;;;;;;;;;44.60;15.50;;;;;;5079706;28;19970;-88
2022/05/10 10:13:32;;;;;;;;;;;44.80;15.30;;;;;;5092041;28;20356;-89
2022/05/10 10:15:58;;;;;;;;;;;44.90;15.30;;;;;;5091801;28;19919;-88
2022/05/10 10:18:43;;;;;;;;;;;44.80;15.40;;;;;;5102035;28;20337;-88
2022/05/10 10:21:10;;;;;;;;;;;44.80;15.00;;;;;;5081221;28;19946;-88
2022/05/10 10:23:40;;;;;;;;;;;44.80;15.10;;;;;;5083386;28;19999;-89
2022/05/10 10:26:11;;;;;;;;;;;44.80;14.70;;;;;;5085507;28;19919;-88
2022/05/10 10:28:41;;;;;;;;;;;44.70;14.60;;;;;;5080246;28;19913;-88
2022/05/10 10:31:13;;;;;;;;;;;44.50;14.60;;;;;;5079186;28;20261;-88
2022/05/10 10:33:52;;;;;;;;;;;44.50;14.90;;;;;;5080410;28;19912;-88
2022/05/10 10:36:25;;;;;;;;;;;44.60;14.80;;;;;;5078484;28;20045;-88
2022/05/10 10:38:52;;;;;;;;;;;44.50;14.80;;;;;;5079762;28;19916;-88
2022/05/10 10:41:30;;;;;;;;;;;44.50;15.00;;;;;;5081183;28;20006;-88
2022/05/10 10:44:06;;;;;;;;;;;44.80;15.20;;;;;;5052283;28;20363;-87
2022/05/10 10:46:34;;;;;;;;;;;45.40;14.80;;;;;;5077619;28;19916;-88
2022/05/10 10:49:25;;;;;;;;;;;45.50;14.30;;;;;;5083728;28;19916;-87
2022/05/10 10:51:51;;;;;;;;;;;45.10;13.90;;;;;;5064972;28;19923;-87
2022/05/10 10:54:24;;;;;;;;;;;44.70;14.00;;;;;;5077227;28;19912;-88
2022/05/10 10:56:52;;;;;;;;;;;44.20;14.40;;;;;;5081122;28;19916;-88
2022/05/10 10:59:27;;;;;;;;;;;43.90;14.60;;;;;;5101881;28;19924;-88
2022/05/10 11:01:56;;;;;;;;;;;43.70;14.60;;;;;;5080053;28;20368;-87
2022/05/10 11:04:36;;;;;;;;;;;43.30;14.90;;;;;;5078101;28;20271;-87
2022/05/10 11:07:06;;;;;;;;;;;43.00;15.10;;;;;;5079038;28;19925;-87
2022/05/10 11:09:34;;;;;;;;;;;42.60;15.10;;;;;;5080777;28;19912;-87
2022/05/10 11:12:06;;;;;;;;;;;42.40;15.00;;;;;;5079144;28;19916;-86
2022/05/10 11:14:50;;;;;;;;;;;42.50;15.00;;;;;;5100334;28;19916;-87
2022/05/10 11:17:22;;;;;;;;;;;42.70;14.80;;;;;;5075098;28;20367;-88
2022/05/10 11:19:50;;;;;;;;;;;42.70;14.70;;;;;;5084450;28;19916;-87
2022/05/10 11:22:22;;;;;;;;;;;42.70;14.50;;;;;;5088823;28;19995;-87
2022/05/10 11:24:55;;;;;;;;;;;42.40;14.90;;;;;;5082433;28;20314;-87
2022/05/10 11:27:44;;;;;;;;;;;42.20;15.10;;;;;;5085371;28;20315;-87
2022/05/10 11:30:15;;;;;;;;;;;42.00;15.30;;;;;;5076404;28;19919;-88
2022/05/10 11:33:03;;;;;;;;;;;41.90;15.10;;;;;;5090493;28;19977;-84
2022/05/10 11:35:35;;;;;;;;;;;41.70;15.30;;;;;;5073399;28;20046;-87
2022/05/10 11:38:21;;;;;;;;;;;41.70;15.40;;;;;;5081044;28;19924;-85
2022/05/10 11:40:49;;;;;;;;;;;41.60;15.60;;;;;;5052684;28;19912;-85
2022/05/10 11:43:15;;;;;;;;;;;41.30;15.50;;;;;;5084067;28;19968;-87
2022/05/10 11:45:52;;;;;;;;;;;41.10;15.80;;;;;;5085672;28;19912;-87
2022/05/10 11:48:36;;;;;;;;;;;41.00;16.00;;;;;;5082517;28;19920;-87
2022/05/10 11:53:49;;;;;;;;;;;40.80;16.10;;;;;;5090993;28;19982;-87
2022/05/10 11:56:15;;;;;;;;;;;40.50;16.10;;;;;;5085632;28;19909;-87
2022/05/10 11:58:40;;;;;;;;;;;40.10;16.10;;;;;;5084501;28;19946;-87
2022/05/10 12:01:14;;;;;;;;;;;39.70;16.30;;;;;;5083122;28;19991;-86
2022/05/10 12:03:39;;;;;;;;;;;39.70;16.70;;;;;;5081854;28;19916;-85
2022/05/10 12:06:23;;;;;;;;;;;39.80;16.90;;;;;;5089710;28;19994;-84
2022/05/10 12:08:53;;;;;;;;;;;39.80;16.90;;;;;;5088095;28;19916;-86
2022/05/10 12:11:27;;;;;;;;;;;39.70;17.00;;;;;;5092278;28;19931;-86
2022/05/10 12:22:14;;;;;;;;;;;39.10;17.20;;;;;;5083739;28;19919;-85
2022/05/10 12:24:44;;;;;;;;;;;38.90;17.20;;;;;;5082018;28;19920;-85
2022/05/10 12:27:12;;;;;;;;;;;38.80;17.30;;;;;;5084718;28;19967;-86
2022/05/10 12:29:37;;;;;;;;;;;38.50;17.50;;;;;;5083422;28;20642;-86
2022/05/10 12:32:21;;;;;;;;;;;38.50;17.60;;;;;;5079811;28;19951;-86
2022/05/10 12:34:54;;;;;;;;;;;38.50;17.70;;;;;;5085009;28;19912;-85
2022/05/10 12:37:28;;;;;;;;;;;38.70;17.80;;;;;;5083992;28;19924;-87
2022/05/10 12:40:09;;;;;;;;;;;39.00;17.60;;;;;;5098946;28;19951;-86
2022/05/10 12:42:53;;;;;;;;;;;39.00;17.20;;;;;;5077768;28;19916;-87
2022/05/10 12:45:39;;;;;;;;;;;38.80;17.20;;;;;;5086006;28;19920;-86
2022/05/10 12:48:07;;;;;;;;;;;38.80;17.60;;;;;;5084069;28;19919;-87
2022/05/10 12:50:39;;;;;;;;;;;38.80;17.70;;;;;;5084995;28;19985;-85
2022/05/10 12:53:16;;;;;;;;;;;38.50;17.60;;;;;;5086106;28;20017;-87
2022/05/10 12:55:42;;;;;;;;;;;38.20;17.70;;;;;;5081546;28;19999;-86
2022/05/10 12:58:28;;;;;;;;;;;37.90;17.90;;;;;;5081561;28;19920;-85
2022/05/10 13:00:55;;;;;;;;;;;37.80;18.20;;;;;;5079892;28;19920;-84
2022/05/10 13:03:28;;;;;;;;;;;37.80;18.20;;;;;;5104743;28;20002;-86
2022/05/10 13:06:17;;;;;;;;;;;37.80;18.10;;;;;;5085956;28;19912;-86
2022/05/10 13:08:51;;;;;;;;;;;37.80;18.00;;;;;;5085179;28;19920;-87
2022/05/10 13:11:19;;;;;;;;;;;38.00;17.90;;;;;;5082115;28;20348;-85
2022/05/10 13:13:45;;;;;;;;;;;38.30;17.90;;;;;;5079267;28;19940;-86
2022/05/10 13:16:15;;;;;;;;;;;38.60;17.80;;;;;;5081688;28;19915;-86
2022/05/10 13:18:42;;;;;;;;;;;38.80;17.70;;;;;;5081718;28;19983;-86
2022/05/10 13:21:07;;;;;;;;;;;39.00;17.70;;;;;;5085461;28;20353;-87
2022/05/10 13:23:34;;;;;;;;;;;39.20;17.60;;;;;;5084325;28;19913;-87
2022/05/10 13:26:06;;;;;;;;;;;39.30;17.20;;;;;;5083472;28;19908;-87
2022/05/10 13:28:32;;;;;;;;;;;39.20;17.20;;;;;;5078250;28;19917;-88
2022/05/10 13:31:00;;;;;;;;;;;39.20;17.30;;;;;;5083310;28;20438;-88
2022/05/10 13:33:27;;;;;;;;;;;39.00;17.50;;;;;;5083216;28;20315;-87
2022/05/10 13:36:01;;;;;;;;;;;39.00;17.40;;;;;;5075544;28;19968;-87
2022/05/10 13:38:28;;;;;;;;;;;38.90;17.20;;;;;;5077026;28;20435;-87
2022/05/10 13:40:56;;;;;;;;;;;38.70;17.50;;;;;;5087943;28;19916;-88
2022/05/10 13:43:32;;;;;;;;;;;38.40;17.60;;;;;;5094010;28;20306;-87
2022/05/10 13:45:59;;;;;;;;;;;38.30;17.90;;;;;;5096040;28;19919;-88
2022/05/10 13:48:29;;;;;;;;;;;38.30;18.00;;;;;;5096018;28;19965;-88
2022/05/10 13:50:56;;;;;;;;;;;38.30;18.00;;;;;;5078254;28;20257;-87
2022/05/10 13:53:27;;;;;;;;;;;38.30;17.70;;;;;;5073605;28;19928;-88
2022/05/10 13:55:53;;;;;;;;;;;38.10;17.60;;;;;;5074403;28;19912;-87
2022/05/10 13:58:27;;;;;;;;;;;38.00;17.70;;;;;;5072614;28;19920;-88
2022/05/10 14:00:54;;;;;;;;;;;37.90;17.90;;;;;;5074153;28;19966;-87
2022/05/10 14:03:20;;;;;;;;;;;37.70;17.80;;;;;;5073552;28;19920;-87
2022/05/10 14:05:47;;;;;;;;;;;37.60;18.20;;;;;;5072926;28;19916;-88
2022/05/10 14:08:14;;;;;;;;;;;37.60;18.10;;;;;;5076324;28;19982;-86
2022/05/10 14:10:42;;;;;;;;;;;37.50;18.20;;;;;;5075438;28;20270;-88
2022/05/10 14:13:10;;;;;;;;;;;37.30;18.20;;;;;;5075303;28;19912;-86
2022/05/10 14:15:38;;;;;;;;;;;37.00;18.20;;;;;;5073107;28;20008;-87
2022/05/10 14:18:07;;;;;;;;;;;36.80;18.50;;;;;;5073330;28;19920;-87
2022/05/10 14:20:35;;;;;;;;;;;36.70;18.70;;;;;;5073568;28;19982;-87
2022/05/10 14:23:02;;;;;;;;;;;36.60;19.00;;;;;;5073329;28;19923;-87
2022/05/10 14:25:29;;;;;;;;;;;36.60;19.20;;;;;;5072858;28;19912;-88
2022/05/10 14:28:20;;;;;;;;;;;36.50;19.40;;;;;;5074765;28;20540;-87
2022/05/10 14:30:49;;;;;;;;;;;36.40;19.70;;;;;;5073797;28;19917;-87
2022/05/10 14:33:22;;;;;;;;;;;36.50;20.00;;;;;;5073731;28;19921;-87
2022/05/10 14:35:49;;;;;;;;;;;36.50;20.20;;;;;;5073398;28;19920;-86
2022/05/10 14:38:19;;;;;;;;;;;36.50;20.40;;;;;;5073241;28;20330;-87
2022/05/10 14:40:45;;;;;;;;;;;36.70;20.50;;;;;;5075079;28;20404;-87
2022/05/10 14:43:13;;;;;;;;;;;36.70;20.60;;;;;;5073260;28;20252;-87
2022/05/10 14:45:43;;;;;;;;;;;36.70;20.70;;;;;;5074229;28;20348;-87
2022/05/10 14:48:19;;;;;;;;;;;36.70;20.70;;;;;;5075139;28;19919;-87
2022/05/10 14:50:46;;;;;;;;;;;36.70;20.70;;;;;;5073938;28;20016;-88